Tennyson, Indiana
Current Conditions -  °F | °C
As of 3:15 PM on Saturday 22 Nov 2014 (Local Time) from KHNB Reporting Station
Clear Clear  
Wind Chill: 61°   Ceiling: Unl
Heat Index: 61°   Visibility: 10mi
Dew Point: 39°   Wind: 15mph
Humidity: 45%   Direction: 190°S
Pressure: 30.1"   Gusts: NA
Location:  38.08°N, 87.12°W
Report Text: KHNB 222115Z AUTO 19013KT 10SM CLR 16/04 A3010 RMK AO1
Loading
Personal Weather Stations






























Interactive Weather Map New forecast layout! Learn more

10-Day Weather Forecast

Advertisements
Track Severe Weather on mobile